TimeMST,TemperatureF,Dew PointF,Humidity,Sea Level PressureIn,VisibilityMPH,Wind Direction,Wind SpeedMPH,Gust SpeedMPH,PrecipitationIn,Events,Conditions,WindDirDegrees,DateUTC
12:15 AM,39.2,30.2,70,30.10,10.0,West,16.1,-,N/A,,Clear,280,2012-11-06 07:15:00
12:35 AM,39.2,28.4,65,30.10,10.0,West,16.1,21.9,N/A,,Clear,280,2012-11-06 07:35:00
12:55 AM,39.2,28.4,65,30.10,10.0,West,17.3,-,N/A,,Clear,280,2012-11-06 07:55:00
1:15 AM,39.2,28.4,65,30.10,10.0,West,16.1,20.7,N/A,,Clear,280,2012-11-06 08:15:00
1:35 AM,37.4,28.4,70,30.10,10.0,West,15.0,20.7,N/A,,Clear,280,2012-11-06 08:35:00
1:55 AM,37.4,28.4,70,30.11,10.0,West,13.8,-,N/A,,Clear,280,2012-11-06 08:55:00
2:15 AM,37.4,30.2,75,30.11,10.0,West,17.3,23.0,N/A,,Clear,280,2012-11-06 09:15:00
2:35 AM,37.4,30.2,75,30.11,10.0,West,17.3,-,N/A,,Clear,280,2012-11-06 09:35:00
2:55 AM,37.4,30.2,75,30.12,10.0,West,17.3,23.0,N/A,,Clear,280,2012-11-06 09:55:00
3:15 AM,37.4,28.4,70,30.12,10.0,West,17.3,23.0,N/A,,Clear,280,2012-11-06 10:15:00
3:35 AM,37.4,28.4,70,30.11,10.0,West,17.3,-,N/A,,Clear,280,2012-11-06 10:35:00
3:55 AM,37.4,28.4,70,30.12,10.0,West,18.4,23.0,N/A,,Clear,280,2012-11-06 10:55:00
4:15 AM,37.4,28.4,70,30.12,10.0,West,18.4,24.2,N/A,,Clear,280,2012-11-06 11:15:00
4:35 AM,37.4,28.4,70,30.13,10.0,West,18.4,-,N/A,,Clear,280,2012-11-06 11:35:00
4:55 AM,37.4,28.4,70,30.13,10.0,West,17.3,23.0,N/A,,Clear,280,2012-11-06 11:55:00
5:15 AM,37.4,28.4,70,30.13,10.0,WNW,16.1,-,N/A,,Clear,290,2012-11-06 12:15:00
5:35 AM,37.4,28.4,70,30.14,10.0,WNW,15.0,-,N/A,,Clear,290,2012-11-06 12:35:00
5:55 AM,35.6,28.4,75,30.15,10.0,WNW,15.0,-,N/A,,Clear,290,2012-11-06 12:55:00
6:15 AM,35.6,26.6,70,30.15,10.0,WNW,12.7,-,N/A,,Clear,290,2012-11-06 13:15:00
6:35 AM,35.6,26.6,70,30.15,10.0,WNW,12.7,-,N/A,,Clear,300,2012-11-06 13:35:00
6:55 AM,35.6,26.6,70,30.16,10.0,WNW,12.7,-,N/A,,Clear,300,2012-11-06 13:55:00
7:15 AM,35.6,26.6,70,30.17,10.0,WNW,12.7,-,N/A,,Clear,300,2012-11-06 14:15:00
7:35 AM,35.6,26.6,70,30.17,10.0,West,10.4,-,N/A,,Clear,280,2012-11-06 14:35:00
7:55 AM,37.4,26.6,65,30.18,10.0,WNW,15.0,-,N/A,,Clear,290,2012-11-06 14:55:00
8:15 AM,37.4,26.6,65,30.19,10.0,West,12.7,-,N/A,,Clear,280,2012-11-06 15:15:00
8:35 AM,39.2,26.6,61,30.19,10.0,West,11.5,-,N/A,,Clear,280,2012-11-06 15:35:00
8:55 AM,41.0,28.4,61,30.19,10.0,West,15.0,-,N/A,,Clear,280,2012-11-06 15:55:00
9:15 AM,42.8,26.6,53,30.18,10.0,West,11.5,-,N/A,,Clear,270,2012-11-06 16:15:00
9:35 AM,42.8,26.6,53,30.19,10.0,West,12.7,-,N/A,,Clear,270,2012-11-06 16:35:00
9:55 AM,44.6,26.6,49,30.19,10.0,West,15.0,-,N/A,,Clear,270,2012-11-06 16:55:00
10:15 AM,44.6,28.4,53,30.18,10.0,West,13.8,-,N/A,,Clear,280,2012-11-06 17:15:00
10:35 AM,46.4,28.4,50,30.18,10.0,WNW,13.8,-,N/A,,Clear,290,2012-11-06 17:35:00
10:55 AM,46.4,28.4,50,30.17,10.0,WNW,16.1,-,N/A,,Clear,290,2012-11-06 17:55:00
11:35 AM,48.2,26.6,43,30.17,10.0,WNW,11.5,-,N/A,,Clear,300,2012-11-06 18:35:00
11:55 AM,48.2,26.6,43,30.17,10.0,WNW,15.0,19.6,N/A,,Clear,300,2012-11-06 18:55:00
12:15 PM,50.0,26.6,40,30.16,10.0,WNW,16.1,20.7,N/A,,Clear,300,2012-11-06 19:15:00
12:35 PM,51.8,26.6,38,30.15,10.0,WNW,16.1,20.7,N/A,,Clear,300,2012-11-06 19:35:00
12:55 PM,51.8,24.8,35,30.15,10.0,NW,12.7,-,N/A,,Clear,320,2012-11-06 19:55:00
1:15 PM,51.8,26.6,38,30.14,10.0,NW,12.7,-,N/A,,Clear,320,2012-11-06 20:15:00
1:35 PM,50.0,24.8,37,30.14,10.0,NW,9.2,-,N/A,,Clear,320,2012-11-06 20:35:00
1:55 PM,50.0,24.8,37,30.14,10.0,NW,9.2,-,N/A,,Partly Cloudy,310,2012-11-06 20:55:00
2:15 PM,50.0,24.8,37,30.13,10.0,WNW,6.9,-,N/A,,Mostly Cloudy,300,2012-11-06 21:15:00
2:35 PM,50.0,24.8,37,30.13,10.0,NW,8.1,-,N/A,,Overcast,320,2012-11-06 21:35:00
3:15 PM,50.0,26.6,40,30.13,10.0,NW,9.2,-,N/A,,Scattered Clouds,310,2012-11-06 22:15:00
3:35 PM,50.0,26.6,40,30.13,10.0,WNW,4.6,-,N/A,,Mostly Cloudy,290,2012-11-06 22:35:00
3:55 PM,48.2,24.8,40,30.13,10.0,NW,4.6,-,N/A,,Overcast,310,2012-11-06 22:55:00
4:15 PM,46.4,24.8,43,30.11,10.0,West,3.5,-,N/A,,Mostly Cloudy,280,2012-11-06 23:15:00
4:35 PM,42.8,24.8,49,30.12,10.0,WNW,4.6,-,N/A,,Partly Cloudy,300,2012-11-06 23:35:00
4:55 PM,39.2,24.8,56,30.12,10.0,West,5.8,-,N/A,,Clear,270,2012-11-06 23:55:00
5:15 PM,39.2,24.8,56,30.12,10.0,WNW,5.8,-,N/A,,Clear,300,2012-11-07 00:15:00
5:35 PM,37.4,24.8,60,30.12,10.0,NW,3.5,-,N/A,,Clear,310,2012-11-07 00:35:00
5:55 PM,37.4,26.6,65,30.11,10.0,West,6.9,-,N/A,,Mostly Cloudy,280,2012-11-07 00:55:00
6:15 PM,39.2,26.6,61,30.11,10.0,East,3.5,-,N/A,,Overcast,100,2012-11-07 01:15:00
6:35 PM,37.4,26.6,65,30.10,10.0,WSW,4.6,-,N/A,,Overcast,240,2012-11-07 01:35:00
6:55 PM,37.4,28.4,70,30.10,10.0,Calm,Calm,-,N/A,,Overcast,0,2012-11-07 01:55:00
7:15 PM,37.4,28.4,70,30.10,10.0,Calm,Calm,-,N/A,,Overcast,0,2012-11-07 02:15:00
7:35 PM,39.2,28.4,65,30.09,10.0,NNW,3.5,-,N/A,,Overcast,330,2012-11-07 02:35:00
7:55 PM,39.2,30.2,70,30.08,10.0,Calm,Calm,-,N/A,,Overcast,0,2012-11-07 02:55:00
8:15 PM,39.2,28.4,65,30.07,10.0,Calm,Calm,-,N/A,,Overcast,0,2012-11-07 03:15:00
8:35 PM,37.4,28.4,70,30.08,10.0,Calm,Calm,-,N/A,,Overcast,0,2012-11-07 03:35:00
8:55 PM,37.4,26.6,65,30.07,10.0,Calm,Calm,-,N/A,,Mostly Cloudy,0,2012-11-07 03:55:00
9:15 PM,33.8,24.8,70,30.07,10.0,Calm,Calm,-,N/A,,Partly Cloudy,0,2012-11-07 04:15:00
9:35 PM,32.0,24.8,75,30.06,10.0,Calm,Calm,-,N/A,,Clear,0,2012-11-07 04:35:00
9:55 PM,30.2,24.8,80,30.06,10.0,SSW,3.5,-,N/A,,Clear,210,2012-11-07 04:55:00
10:15 PM,32.0,24.8,75,30.05,10.0,Calm,Calm,-,N/A,,Clear,0,2012-11-07 05:15:00
10:35 PM,30.2,23.0,75,30.04,10.0,Calm,Calm,-,N/A,,Clear,0,2012-11-07 05:35:00
10:55 PM,28.4,23.0,80,30.04,10.0,Calm,Calm,-,N/A,,Clear,0,2012-11-07 05:55:00
11:15 PM,28.4,21.2,74,30.03,10.0,Calm,Calm,-,N/A,,Clear,0,2012-11-07 06:15:00
11:35 PM,28.4,24.8,86,30.03,10.0,Calm,Calm,-,N/A,,Scattered Clouds,0,2012-11-07 06:35:00
11:55 PM,32.0,28.4,87,30.02,10.0,Calm,Calm,-,N/A,,Mostly Cloudy,0,2012-11-07 06:55:00